Airfield :
LOGIN :

Register | Disclaimer

   EN    FR    IT 

 










Legend :    VFR   Marginal VFR   IFR   Intensive IFR   Very Intensive IFR
Visi :
Ceiling :
>= 8 km
>= 3000ft
5 to 8 km
1000 to 3000 ft
1500m to 5 km
500 to 1000 ft
800 to 1500m
200 to 500 ft
< 800m
< 200 ft
Symbols :   Thunderstorms  Fog  Heavy snow  Heavy precipitations  Wind > 20 kt
SIGMETs :     Misc.  Thunderstorms  Icing  Turbulence  Mountain Waves  Volcanic Ashes






- Airport Elevation : 327 ft
- IATA code : BHX


EGBB - Birmingham

CURRENT METAR :
  • 150220Z AUTO 36007KT 9999 OVC006/// 04/04 Q1006

EXPIRED METARs :
  • 150150Z AUTO 35007KT 9999 BKN006/// OVC014/// 04/04 Q1006
  • 150120Z AUTO 35008KT 9999 OVC006/// 04/04 Q1006
  • 150050Z AUTO 01009KT 9999 OVC006/// 04/04 Q1006
  • 150020Z AUTO 36008KT 9999 OVC006/// 04/04 Q1005
  • 142350Z AUTO 36009KT 9999 OVC005/// 04/04 Q1005

TAF TAF EGBB
Valid from the 15 at 00:00 until the 16 at 00:00 UTC


142304Z 1500/1524 01008KT 9999 BKN006
TEMPO 1500/1510 BKN004
PROB30 1500/1507 4000 BR
PROB40
TEMPO 1507/1511 4000 -RADZ BR
BECMG 1510/1513 SCT025
TEMPO 1518/1524 6000 -RADZ BKN012
PROB30
TEMPO 1520/1524 02015G25KT 4000 RADZ BKN008
ATIS : +44 121 780 0910



MET'MAP, your aeronautical weather chart ! - Copyright ORBIFLY December 2007 - Disclaimer

ORBIFLY MET'MAP TEAM :

Programming & Development : Alexandra Zaïnal
Concept & Development : Baudouin d'Aumeries
Co-Development & Prog : Marc-Olivier Méhu
Technical & hardware support : Manuel Goepfert

Contact : metmap@orbifly.com




SOURCES & CREDITS :

   NOAA